sensor_id;sensor_type;location;lat;lon;timestamp;P1;durP1;ratioP1;P2;durP2;ratioP2
52126;SDS011;38120;53.176;6.614;2023-04-25T00:02:21;12.60;;;4.30;;
52126;SDS011;38120;53.176;6.614;2023-04-25T00:04:47;18.80;;;5.07;;
52126;SDS011;38120;53.176;6.614;2023-04-25T00:07:16;16.67;;;4.75;;
52126;SDS011;38120;53.176;6.614;2023-04-25T00:09:42;13.48;;;3.70;;
52126;SDS011;38120;53.176;6.614;2023-04-25T00:12:14;16.25;;;5.53;;
52126;SDS011;38120;53.176;6.614;2023-04-25T00:17:06;17.70;;;4.60;;
52126;SDS011;38120;53.176;6.614;2023-04-25T00:19:31;19.57;;;4.97;;
52126;SDS011;38120;53.176;6.614;2023-04-25T00:21:59;16.88;;;4.60;;
52126;SDS011;38120;53.176;6.614;2023-04-25T00:24:27;22.48;;;4.50;;
52126;SDS011;38120;53.176;6.614;2023-04-25T00:26:53;15.93;;;4.43;;
52126;SDS011;38120;53.176;6.614;2023-04-25T00:29:18;25.53;;;5.43;;
52126;SDS011;38120;53.176;6.614;2023-04-25T00:31:52;20.25;;;4.78;;
52126;SDS011;38120;53.176;6.614;2023-04-25T00:34:18;24.33;;;5.15;;
52126;SDS011;38120;53.176;6.614;2023-04-25T00:36:44;16.90;;;4.20;;
52126;SDS011;38120;53.176;6.614;2023-04-25T00:39:18;18.23;;;3.75;;
52126;SDS011;38120;53.176;6.614;2023-04-25T00:41:44;17.93;;;4.80;;
52126;SDS011;38120;53.176;6.614;2023-04-25T00:44:10;13.90;;;3.67;;
52126;SDS011;38120;53.176;6.614;2023-04-25T00:46:37;14.10;;;3.58;;
52126;SDS011;38120;53.176;6.614;2023-04-25T00:49:09;10.88;;;2.92;;
52126;SDS011;38120;53.176;6.614;2023-04-25T00:51:40;19.15;;;4.10;;
52126;SDS011;38120;53.176;6.614;2023-04-25T00:54:06;10.98;;;3.42;;
52126;SDS011;38120;53.176;6.614;2023-04-25T00:56:32;13.73;;;2.97;;
52126;SDS011;38120;53.176;6.614;2023-04-25T00:58:58;14.50;;;3.47;;
52126;SDS011;38120;53.176;6.614;2023-04-25T01:01:39;13.90;;;3.85;;
52126;SDS011;38120;53.176;6.614;2023-04-25T01:04:08;13.15;;;3.60;;
52126;SDS011;38120;53.176;6.614;2023-04-25T01:06:36;9.27;;;2.88;;
52126;SDS011;38120;53.176;6.614;2023-04-25T01:09:02;16.73;;;3.23;;
52126;SDS011;38120;53.176;6.614;2023-04-25T01:11:29;17.35;;;3.22;;
52126;SDS011;38120;53.176;6.614;2023-04-25T01:13:55;12.20;;;3.70;;
52126;SDS011;38120;53.176;6.614;2023-04-25T01:16:21;12.77;;;4.05;;
52126;SDS011;38120;53.176;6.614;2023-04-25T01:18:49;7.63;;;2.47;;
52126;SDS011;38120;53.176;6.614;2023-04-25T01:21:16;9.98;;;3.17;;
52126;SDS011;38120;53.176;6.614;2023-04-25T01:23:42;12.82;;;3.22;;
52126;SDS011;38120;53.176;6.614;2023-04-25T01:26:08;15.73;;;3.10;;
52126;SDS011;38120;53.176;6.614;2023-04-25T01:28:35;11.88;;;3.25;;
52126;SDS011;38120;53.176;6.614;2023-04-25T01:31:01;11.05;;;2.88;;
52126;SDS011;38120;53.176;6.614;2023-04-25T01:33:28;12.52;;;3.50;;
52126;SDS011;38120;53.176;6.614;2023-04-25T01:35:54;11.50;;;2.72;;
52126;SDS011;38120;53.176;6.614;2023-04-25T01:38:20;9.67;;;2.43;;
52126;SDS011;38120;53.176;6.614;2023-04-25T01:40:52;10.17;;;2.67;;
52126;SDS011;38120;53.176;6.614;2023-04-25T01:43:19;8.05;;;2.72;;
52126;SDS011;38120;53.176;6.614;2023-04-25T01:45:45;9.15;;;2.88;;
52126;SDS011;38120;53.176;6.614;2023-04-25T01:48:22;8.65;;;2.63;;
52126;SDS011;38120;53.176;6.614;2023-04-25T01:50:48;11.73;;;3.47;;
52126;SDS011;38120;53.176;6.614;2023-04-25T01:53:14;10.27;;;2.97;;
52126;SDS011;38120;53.176;6.614;2023-04-25T01:55:40;8.45;;;2.47;;
52126;SDS011;38120;53.176;6.614;2023-04-25T01:58:05;13.10;;;2.67;;
52126;SDS011;38120;53.176;6.614;2023-04-25T02:00:34;10.40;;;2.53;;
52126;SDS011;38120;53.176;6.614;2023-04-25T02:03:03;17.95;;;3.33;;
52126;SDS011;38120;53.176;6.614;2023-04-25T02:05:28;12.55;;;2.90;;
52126;SDS011;38120;53.176;6.614;2023-04-25T02:08:00;8.10;;;2.22;;
52126;SDS011;38120;53.176;6.614;2023-04-25T02:10:26;8.68;;;3.80;;
52126;SDS011;38120;53.176;6.614;2023-04-25T02:12:51;12.30;;;2.90;;
52126;SDS011;38120;53.176;6.614;2023-04-25T02:15:17;11.18;;;3.13;;
52126;SDS011;38120;53.176;6.614;2023-04-25T02:17:53;15.48;;;3.25;;
52126;SDS011;38120;53.176;6.614;2023-04-25T02:20:20;14.98;;;3.83;;
52126;SDS011;38120;53.176;6.614;2023-04-25T02:22:46;17.95;;;3.95;;
52126;SDS011;38120;53.176;6.614;2023-04-25T02:25:13;13.88;;;3.40;;
52126;SDS011;38120;53.176;6.614;2023-04-25T02:27:39;7.43;;;3.13;;
52126;SDS011;38120;53.176;6.614;2023-04-25T02:30:05;10.57;;;2.87;;
52126;SDS011;38120;53.176;6.614;2023-04-25T02:32:31;12.30;;;3.00;;
52126;SDS011;38120;53.176;6.614;2023-04-25T02:34:59;15.48;;;3.10;;
52126;SDS011;38120;53.176;6.614;2023-04-25T02:37:29;14.02;;;2.83;;
52126;SDS011;38120;53.176;6.614;2023-04-25T02:39:55;9.68;;;2.22;;
52126;SDS011;38120;53.176;6.614;2023-04-25T02:42:21;12.60;;;3.45;;
52126;SDS011;38120;53.176;6.614;2023-04-25T02:44:47;18.37;;;3.50;;
52126;SDS011;38120;53.176;6.614;2023-04-25T02:47:13;10.63;;;2.43;;
52126;SDS011;38120;53.176;6.614;2023-04-25T02:49:38;13.03;;;3.40;;
52126;SDS011;38120;53.176;6.614;2023-04-25T02:52:04;8.73;;;2.37;;
52126;SDS011;38120;53.176;6.614;2023-04-25T02:54:30;13.73;;;3.03;;
52126;SDS011;38120;53.176;6.614;2023-04-25T02:56:56;8.90;;;2.37;;
52126;SDS011;38120;53.176;6.614;2023-04-25T02:59:21;10.23;;;2.90;;
52126;SDS011;38120;53.176;6.614;2023-04-25T03:01:47;9.57;;;2.30;;
52126;SDS011;38120;53.176;6.614;2023-04-25T03:04:13;5.97;;;2.53;;
52126;SDS011;38120;53.176;6.614;2023-04-25T03:06:38;12.60;;;2.83;;
52126;SDS011;38120;53.176;6.614;2023-04-25T03:09:04;10.27;;;2.53;;
52126;SDS011;38120;53.176;6.614;2023-04-25T03:11:30;13.23;;;3.07;;
52126;SDS011;38120;53.176;6.614;2023-04-25T03:13:55;11.97;;;2.80;;
52126;SDS011;38120;53.176;6.614;2023-04-25T03:16:21;11.43;;;3.73;;
52126;SDS011;38120;53.176;6.614;2023-04-25T03:18:47;9.90;;;2.95;;
52126;SDS011;38120;53.176;6.614;2023-04-25T03:21:14;11.35;;;3.00;;
52126;SDS011;38120;53.176;6.614;2023-04-25T03:23:40;12.30;;;3.57;;
52126;SDS011;38120;53.176;6.614;2023-04-25T03:26:06;14.23;;;4.80;;
52126;SDS011;38120;53.176;6.614;2023-04-25T03:28:31;16.93;;;3.17;;
52126;SDS011;38120;53.176;6.614;2023-04-25T03:30:57;7.93;;;3.57;;
52126;SDS011;38120;53.176;6.614;2023-04-25T03:33:23;6.60;;;2.10;;
52126;SDS011;38120;53.176;6.614;2023-04-25T03:35:48;15.10;;;2.73;;
52126;SDS011;38120;53.176;6.614;2023-04-25T03:38:15;10.15;;;2.55;;
52126;SDS011;38120;53.176;6.614;2023-04-25T03:40:40;6.60;;;2.80;;
52126;SDS011;38120;53.176;6.614;2023-04-25T03:43:06;11.80;;;2.97;;
52126;SDS011;38120;53.176;6.614;2023-04-25T03:45:32;14.85;;;2.88;;
52126;SDS011;38120;53.176;6.614;2023-04-25T03:47:58;7.70;;;1.93;;
52126;SDS011;38120;53.176;6.614;2023-04-25T03:50:23;12.00;;;3.27;;
52126;SDS011;38120;53.176;6.614;2023-04-25T03:52:49;13.27;;;2.67;;
52126;SDS011;38120;53.176;6.614;2023-04-25T03:55:15;7.07;;;2.37;;
52126;SDS011;38120;53.176;6.614;2023-04-25T03:57:41;8.23;;;2.73;;
52126;SDS011;38120;53.176;6.614;2023-04-25T04:00:06;7.43;;;2.10;;
52126;SDS011;38120;53.176;6.614;2023-04-25T04:02:33;19.55;;;3.30;;
52126;SDS011;38120;53.176;6.614;2023-04-25T04:05:00;11.93;;;2.67;;
52126;SDS011;38120;53.176;6.614;2023-04-25T04:07:25;6.97;;;2.10;;
52126;SDS011;38120;53.176;6.614;2023-04-25T04:09:51;8.27;;;2.27;;
52126;SDS011;38120;53.176;6.614;2023-04-25T04:12:17;19.67;;;3.80;;
52126;SDS011;38120;53.176;6.614;2023-04-25T04:14:42;9.37;;;2.50;;
52126;SDS011;38120;53.176;6.614;2023-04-25T04:17:14;10.60;;;2.83;;
52126;SDS011;38120;53.176;6.614;2023-04-25T04:19:40;5.57;;;1.70;;
52126;SDS011;38120;53.176;6.614;2023-04-25T04:22:06;11.38;;;2.70;;
52126;SDS011;38120;53.176;6.614;2023-04-25T04:24:32;10.17;;;2.53;;
52126;SDS011;38120;53.176;6.614;2023-04-25T04:27:03;15.02;;;3.53;;
52126;SDS011;38120;53.176;6.614;2023-04-25T04:29:29;15.25;;;3.58;;
52126;SDS011;38120;53.176;6.614;2023-04-25T04:31:54;14.40;;;3.80;;
52126;SDS011;38120;53.176;6.614;2023-04-25T04:34:20;11.93;;;2.10;;
52126;SDS011;38120;53.176;6.614;2023-04-25T04:36:46;11.93;;;3.70;;
52126;SDS011;38120;53.176;6.614;2023-04-25T04:39:12;9.87;;;2.73;;
52126;SDS011;38120;53.176;6.614;2023-04-25T04:41:38;11.13;;;2.38;;
52126;SDS011;38120;53.176;6.614;2023-04-25T04:44:04;10.13;;;2.20;;
52126;SDS011;38120;53.176;6.614;2023-04-25T04:46:31;14.32;;;1.90;;
52126;SDS011;38120;53.176;6.614;2023-04-25T04:49:09;13.30;;;3.08;;
52126;SDS011;38120;53.176;6.614;2023-04-25T04:51:35;12.27;;;2.70;;
52126;SDS011;38120;53.176;6.614;2023-04-25T04:54:02;8.45;;;2.15;;
52126;SDS011;38120;53.176;6.614;2023-04-25T04:56:33;9.75;;;2.45;;
52126;SDS011;38120;53.176;6.614;2023-04-25T04:59:00;8.27;;;2.42;;
52126;SDS011;38120;53.176;6.614;2023-04-25T05:01:26;12.82;;;2.92;;
52126;SDS011;38120;53.176;6.614;2023-04-25T05:03:55;16.45;;;3.15;;
52126;SDS011;38120;53.176;6.614;2023-04-25T05:06:28;12.70;;;2.58;;
52126;SDS011;38120;53.176;6.614;2023-04-25T05:08:54;8.40;;;2.97;;
52126;SDS011;38120;53.176;6.614;2023-04-25T05:11:21;8.77;;;2.70;;
52126;SDS011;38120;53.176;6.614;2023-04-25T05:13:48;7.43;;;2.30;;
52126;SDS011;38120;53.176;6.614;2023-04-25T05:16:14;8.05;;;2.80;;
52126;SDS011;38120;53.176;6.614;2023-04-25T05:18:40;6.57;;;2.60;;
52126;SDS011;38120;53.176;6.614;2023-04-25T05:21:06;6.93;;;2.00;;
52126;SDS011;38120;53.176;6.614;2023-04-25T05:23:32;10.00;;;2.13;;
52126;SDS011;38120;53.176;6.614;2023-04-25T05:25:58;10.27;;;2.22;;
52126;SDS011;38120;53.176;6.614;2023-04-25T05:28:24;8.70;;;2.53;;
52126;SDS011;38120;53.176;6.614;2023-04-25T05:30:50;11.93;;;2.73;;
52126;SDS011;38120;53.176;6.614;2023-04-25T05:33:16;9.27;;;2.97;;
52126;SDS011;38120;53.176;6.614;2023-04-25T05:35:42;6.43;;;1.90;;
52126;SDS011;38120;53.176;6.614;2023-04-25T05:38:08;10.27;;;2.27;;
52126;SDS011;38120;53.176;6.614;2023-04-25T05:40:34;7.80;;;2.40;;
52126;SDS011;38120;53.176;6.614;2023-04-25T05:42:59;11.05;;;2.47;;
52126;SDS011;38120;53.176;6.614;2023-04-25T05:45:25;8.40;;;2.05;;
52126;SDS011;38120;53.176;6.614;2023-04-25T05:47:51;6.47;;;2.37;;
52126;SDS011;38120;53.176;6.614;2023-04-25T05:50:17;6.82;;;2.58;;
52126;SDS011;38120;53.176;6.614;2023-04-25T05:52:43;6.28;;;2.10;;
52126;SDS011;38120;53.176;6.614;2023-04-25T05:55:18;7.00;;;1.97;;
52126;SDS011;38120;53.176;6.614;2023-04-25T05:57:49;7.20;;;1.90;;
52126;SDS011;38120;53.176;6.614;2023-04-25T06:00:38;5.75;;;1.90;;
52126;SDS011;38120;53.176;6.614;2023-04-25T06:03:05;11.68;;;1.85;;
52126;SDS011;38120;53.176;6.614;2023-04-25T06:05:34;5.45;;;1.77;;
52126;SDS011;38120;53.176;6.614;2023-04-25T06:08:00;7.30;;;1.95;;
52126;SDS011;38120;53.176;6.614;2023-04-25T06:10:26;4.67;;;1.63;;
52126;SDS011;38120;53.176;6.614;2023-04-25T06:12:52;8.10;;;2.57;;
52126;SDS011;38120;53.176;6.614;2023-04-25T06:15:17;10.50;;;2.50;;
52126;SDS011;38120;53.176;6.614;2023-04-25T06:17:45;7.00;;;2.00;;
52126;SDS011;38120;53.176;6.614;2023-04-25T06:20:11;6.90;;;1.57;;
52126;SDS011;38120;53.176;6.614;2023-04-25T06:22:40;5.85;;;1.45;;
52126;SDS011;38120;53.176;6.614;2023-04-25T06:25:07;6.30;;;2.20;;
52126;SDS011;38120;53.176;6.614;2023-04-25T06:27:33;9.15;;;2.40;;
52126;SDS011;38120;53.176;6.614;2023-04-25T06:29:59;6.00;;;2.03;;
52126;SDS011;38120;53.176;6.614;2023-04-25T06:32:25;6.75;;;2.10;;
52126;SDS011;38120;53.176;6.614;2023-04-25T06:34:52;8.05;;;2.55;;
52126;SDS011;38120;53.176;6.614;2023-04-25T06:37:18;8.90;;;2.38;;
52126;SDS011;38120;53.176;6.614;2023-04-25T06:39:46;7.40;;;2.20;;
52126;SDS011;38120;53.176;6.614;2023-04-25T06:42:12;8.03;;;1.90;;
52126;SDS011;38120;53.176;6.614;2023-04-25T06:44:37;7.63;;;2.10;;
52126;SDS011;38120;53.176;6.614;2023-04-25T06:47:03;5.30;;;1.50;;
52126;SDS011;38120;53.176;6.614;2023-04-25T06:49:29;7.83;;;2.37;;
52126;SDS011;38120;53.176;6.614;2023-04-25T06:51:54;11.23;;;2.10;;
52126;SDS011;38120;53.176;6.614;2023-04-25T06:54:20;9.57;;;1.87;;
52126;SDS011;38120;53.176;6.614;2023-04-25T06:56:46;7.33;;;1.83;;
52126;SDS011;38120;53.176;6.614;2023-04-25T06:59:11;11.00;;;2.60;;
52126;SDS011;38120;53.176;6.614;2023-04-25T07:01:38;11.50;;;2.67;;
52126;SDS011;38120;53.176;6.614;2023-04-25T07:04:04;10.60;;;2.30;;
52126;SDS011;38120;53.176;6.614;2023-04-25T07:06:30;10.23;;;2.28;;
52126;SDS011;38120;53.176;6.614;2023-04-25T07:08:56;6.88;;;1.50;;
52126;SDS011;38120;53.176;6.614;2023-04-25T07:11:21;6.13;;;1.57;;
52126;SDS011;38120;53.176;6.614;2023-04-25T07:13:47;8.20;;;1.60;;
52126;SDS011;38120;53.176;6.614;2023-04-25T07:16:14;6.05;;;1.10;;
52126;SDS011;38120;53.176;6.614;2023-04-25T07:18:41;8.98;;;2.20;;
52126;SDS011;38120;53.176;6.614;2023-04-25T07:21:06;6.73;;;1.47;;
52126;SDS011;38120;53.176;6.614;2023-04-25T07:23:32;5.23;;;1.57;;
52126;SDS011;38120;53.176;6.614;2023-04-25T07:25:58;10.77;;;2.07;;
52126;SDS011;38120;53.176;6.614;2023-04-25T07:28:23;5.40;;;1.63;;
52126;SDS011;38120;53.176;6.614;2023-04-25T07:30:49;4.30;;;1.23;;
52126;SDS011;38120;53.176;6.614;2023-04-25T07:33:16;3.20;;;1.23;;
52126;SDS011;38120;53.176;6.614;2023-04-25T07:35:42;3.53;;;1.35;;
52126;SDS011;38120;53.176;6.614;2023-04-25T07:38:07;7.57;;;1.77;;
52126;SDS011;38120;53.176;6.614;2023-04-25T07:40:35;5.97;;;1.52;;
52126;SDS011;38120;53.176;6.614;2023-04-25T07:43:00;4.30;;;1.17;;
52126;SDS011;38120;53.176;6.614;2023-04-25T07:45:26;10.40;;;1.23;;
52126;SDS011;38120;53.176;6.614;2023-04-25T07:47:52;3.70;;;1.47;;
52126;SDS011;38120;53.176;6.614;2023-04-25T07:50:18;11.77;;;2.55;;
52126;SDS011;38120;53.176;6.614;2023-04-25T07:52:46;7.82;;;1.58;;
52126;SDS011;38120;53.176;6.614;2023-04-25T07:55:12;7.37;;;1.40;;
52126;SDS011;38120;53.176;6.614;2023-04-25T07:57:40;3.60;;;1.10;;
52126;SDS011;38120;53.176;6.614;2023-04-25T08:00:07;3.35;;;1.00;;
52126;SDS011;38120;53.176;6.614;2023-04-25T08:02:36;3.53;;;1.10;;
52126;SDS011;38120;53.176;6.614;2023-04-25T08:05:02;9.43;;;1.30;;
52126;SDS011;38120;53.176;6.614;2023-04-25T08:07:28;5.55;;;1.23;;
52126;SDS011;38120;53.176;6.614;2023-04-25T08:09:54;3.07;;;1.07;;
52126;SDS011;38120;53.176;6.614;2023-04-25T08:12:20;11.43;;;1.42;;
52126;SDS011;38120;53.176;6.614;2023-04-25T08:14:45;9.73;;;1.77;;
52126;SDS011;38120;53.176;6.614;2023-04-25T08:17:11;3.90;;;1.73;;
52126;SDS011;38120;53.176;6.614;2023-04-25T08:19:37;3.80;;;0.93;;
52126;SDS011;38120;53.176;6.614;2023-04-25T08:22:03;2.70;;;0.70;;
52126;SDS011;38120;53.176;6.614;2023-04-25T08:24:28;7.63;;;0.90;;
52126;SDS011;38120;53.176;6.614;2023-04-25T08:26:54;3.50;;;1.07;;
52126;SDS011;38120;53.176;6.614;2023-04-25T08:29:20;2.20;;;0.90;;
52126;SDS011;38120;53.176;6.614;2023-04-25T08:31:48;3.58;;;0.85;;
52126;SDS011;38120;53.176;6.614;2023-04-25T08:34:14;3.80;;;1.00;;
52126;SDS011;38120;53.176;6.614;2023-04-25T08:36:40;1.20;;;0.52;;
52126;SDS011;38120;53.176;6.614;2023-04-25T08:39:09;5.03;;;1.05;;
52126;SDS011;38120;53.176;6.614;2023-04-25T08:41:38;8.40;;;1.02;;
52126;SDS011;38120;53.176;6.614;2023-04-25T08:44:06;6.80;;;1.38;;
52126;SDS011;38120;53.176;6.614;2023-04-25T08:46:36;2.95;;;0.85;;
52126;SDS011;38120;53.176;6.614;2023-04-25T08:49:06;2.17;;;0.73;;
52126;SDS011;38120;53.176;6.614;2023-04-25T08:51:34;6.47;;;1.15;;
52126;SDS011;38120;53.176;6.614;2023-04-25T08:54:09;3.60;;;0.80;;
52126;SDS011;38120;53.176;6.614;2023-04-25T08:56:40;1.27;;;0.68;;
52126;SDS011;38120;53.176;6.614;2023-04-25T08:59:12;5.60;;;0.85;;
52126;SDS011;38120;53.176;6.614;2023-04-25T09:01:41;1.95;;;0.75;;
52126;SDS011;38120;53.176;6.614;2023-04-25T09:04:11;5.43;;;1.00;;
52126;SDS011;38120;53.176;6.614;2023-04-25T09:06:37;5.93;;;1.15;;
52126;SDS011;38120;53.176;6.614;2023-04-25T09:09:04;4.75;;;1.15;;
52126;SDS011;38120;53.176;6.614;2023-04-25T09:11:31;5.80;;;0.98;;
52126;SDS011;38120;53.176;6.614;2023-04-25T09:14:14;9.55;;;2.03;;
52126;SDS011;38120;53.176;6.614;2023-04-25T09:19:34;5.22;;;1.10;;
52126;SDS011;38120;53.176;6.614;2023-04-25T09:22:04;5.30;;;1.45;;
52126;SDS011;38120;53.176;6.614;2023-04-25T09:27:07;9.15;;;2.08;;
52126;SDS011;38120;53.176;6.614;2023-04-25T09:29:36;5.50;;;1.23;;
52126;SDS011;38120;53.176;6.614;2023-04-25T09:32:23;6.18;;;1.80;;
52126;SDS011;38120;53.176;6.614;2023-04-25T09:34:50;5.93;;;1.42;;
52126;SDS011;38120;53.176;6.614;2023-04-25T09:37:21;6.85;;;1.52;;
52126;SDS011;38120;53.176;6.614;2023-04-25T09:39:56;3.60;;;1.17;;
52126;SDS011;38120;53.176;6.614;2023-04-25T09:42:26;6.90;;;1.42;;
52126;SDS011;38120;53.176;6.614;2023-04-25T09:44:54;8.52;;;1.40;;
52126;SDS011;38120;53.176;6.614;2023-04-25T09:47:24;8.65;;;2.20;;
52126;SDS011;38120;53.176;6.614;2023-04-25T09:49:53;6.40;;;1.70;;
52126;SDS011;38120;53.176;6.614;2023-04-25T09:52:21;4.43;;;1.15;;
52126;SDS011;38120;53.176;6.614;2023-04-25T09:54:49;6.85;;;2.15;;
52126;SDS011;38120;53.176;6.614;2023-04-25T09:59:46;6.63;;;2.03;;
52126;SDS011;38120;53.176;6.614;2023-04-25T10:02:14;9.13;;;2.20;;
52126;SDS011;38120;53.176;6.614;2023-04-25T10:04:42;6.30;;;1.85;;
52126;SDS011;38120;53.176;6.614;2023-04-25T10:07:12;5.45;;;1.42;;
52126;SDS011;38120;53.176;6.614;2023-04-25T10:09:39;7.18;;;2.10;;
52126;SDS011;38120;53.176;6.614;2023-04-25T10:12:08;6.13;;;1.92;;
52126;SDS011;38120;53.176;6.614;2023-04-25T10:14:35;9.13;;;1.73;;
52126;SDS011;38120;53.176;6.614;2023-04-25T10:17:01;3.50;;;1.50;;
52126;SDS011;38120;53.176;6.614;2023-04-25T10:19:27;4.80;;;1.60;;
52126;SDS011;38120;53.176;6.614;2023-04-25T10:21:56;4.32;;;1.33;;
52126;SDS011;38120;53.176;6.614;2023-04-25T10:24:37;5.28;;;2.05;;
52126;SDS011;38120;53.176;6.614;2023-04-25T10:27:04;5.03;;;1.80;;
52126;SDS011;38120;53.176;6.614;2023-04-25T10:29:31;4.13;;;1.25;;
52126;SDS011;38120;53.176;6.614;2023-04-25T10:31:57;4.95;;;1.70;;
52126;SDS011;38120;53.176;6.614;2023-04-25T10:34:42;7.40;;;1.52;;
52126;SDS011;38120;53.176;6.614;2023-04-25T10:37:12;5.00;;;1.73;;
52126;SDS011;38120;53.176;6.614;2023-04-25T10:39:41;7.22;;;1.45;;
52126;SDS011;38120;53.176;6.614;2023-04-25T10:42:08;8.15;;;1.40;;
52126;SDS011;38120;53.176;6.614;2023-04-25T10:44:39;7.25;;;1.77;;
52126;SDS011;38120;53.176;6.614;2023-04-25T10:47:06;9.60;;;1.88;;
52126;SDS011;38120;53.176;6.614;2023-04-25T10:49:37;11.25;;;2.47;;
52126;SDS011;38120;53.176;6.614;2023-04-25T10:52:11;7.32;;;1.77;;
52126;SDS011;38120;53.176;6.614;2023-04-25T10:54:46;9.02;;;1.35;;
52126;SDS011;38120;53.176;6.614;2023-04-25T10:57:32;7.85;;;2.90;;
52126;SDS011;38120;53.176;6.614;2023-04-25T11:00:13;1.63;;;0.85;;
52126;SDS011;38120;53.176;6.614;2023-04-25T11:02:44;5.18;;;1.42;;
52126;SDS011;38120;53.176;6.614;2023-04-25T11:05:38;8.25;;;2.22;;
52126;SDS011;38120;53.176;6.614;2023-04-25T11:08:08;5.70;;;1.42;;
52126;SDS011;38120;53.176;6.614;2023-04-25T11:10:36;5.07;;;1.20;;
52126;SDS011;38120;53.176;6.614;2023-04-25T11:13:04;11.55;;;2.70;;
52126;SDS011;38120;53.176;6.614;2023-04-25T11:15:30;9.20;;;1.63;;
52126;SDS011;38120;53.176;6.614;2023-04-25T11:17:56;5.53;;;0.83;;
52126;SDS011;38120;53.176;6.614;2023-04-25T11:20:22;7.23;;;1.50;;
52126;SDS011;38120;53.176;6.614;2023-04-25T11:22:50;3.70;;;1.15;;
52126;SDS011;38120;53.176;6.614;2023-04-25T11:25:16;5.35;;;1.13;;
52126;SDS011;38120;53.176;6.614;2023-04-25T11:27:55;5.53;;;1.13;;
52126;SDS011;38120;53.176;6.614;2023-04-25T11:30:22;6.55;;;1.38;;
52126;SDS011;38120;53.176;6.614;2023-04-25T11:32:50;11.13;;;1.75;;
52126;SDS011;38120;53.176;6.614;2023-04-25T11:35:17;6.28;;;1.63;;
52126;SDS011;38120;53.176;6.614;2023-04-25T11:40:09;8.48;;;1.55;;
52126;SDS011;38120;53.176;6.614;2023-04-25T11:42:42;8.45;;;1.50;;
52126;SDS011;38120;53.176;6.614;2023-04-25T11:45:09;5.60;;;1.83;;
52126;SDS011;38120;53.176;6.614;2023-04-25T11:47:51;2.03;;;0.85;;
52126;SDS011;38120;53.176;6.614;2023-04-25T11:50:17;4.22;;;1.42;;
52126;SDS011;38120;53.176;6.614;2023-04-25T11:52:44;11.67;;;1.60;;
52126;SDS011;38120;53.176;6.614;2023-04-25T11:55:15;7.35;;;1.98;;
52126;SDS011;38120;53.176;6.614;2023-04-25T11:57:43;5.47;;;1.55;;
52126;SDS011;38120;53.176;6.614;2023-04-25T12:00:14;4.70;;;1.63;;
52126;SDS011;38120;53.176;6.614;2023-04-25T12:02:42;3.45;;;1.10;;
52126;SDS011;38120;53.176;6.614;2023-04-25T12:05:10;6.07;;;1.52;;
52126;SDS011;38120;53.176;6.614;2023-04-25T12:07:37;4.57;;;1.40;;
52126;SDS011;38120;53.176;6.614;2023-04-25T12:10:04;9.35;;;2.35;;
52126;SDS011;38120;53.176;6.614;2023-04-25T12:12:34;6.65;;;2.05;;
52126;SDS011;38120;53.176;6.614;2023-04-25T12:15:12;7.18;;;1.90;;
52126;SDS011;38120;53.176;6.614;2023-04-25T12:17:45;4.38;;;1.10;;
52126;SDS011;38120;53.176;6.614;2023-04-25T12:20:13;5.85;;;1.17;;
52126;SDS011;38120;53.176;6.614;2023-04-25T12:22:50;8.85;;;1.90;;
52126;SDS011;38120;53.176;6.614;2023-04-25T12:25:40;6.03;;;1.25;;
52126;SDS011;38120;53.176;6.614;2023-04-25T12:28:17;3.13;;;1.00;;
52126;SDS011;38120;53.176;6.614;2023-04-25T12:31:01;8.57;;;1.60;;
52126;SDS011;38120;53.176;6.614;2023-04-25T12:33:33;7.38;;;1.50;;
52126;SDS011;38120;53.176;6.614;2023-04-25T12:36:00;9.02;;;1.30;;
52126;SDS011;38120;53.176;6.614;2023-04-25T12:38:40;5.13;;;1.63;;
52126;SDS011;38120;53.176;6.614;2023-04-25T12:41:07;7.40;;;1.58;;
52126;SDS011;38120;53.176;6.614;2023-04-25T12:43:33;7.50;;;1.75;;
52126;SDS011;38120;53.176;6.614;2023-04-25T12:45:59;11.30;;;2.20;;
52126;SDS011;38120;53.176;6.614;2023-04-25T12:48:25;6.95;;;1.52;;
52126;SDS011;38120;53.176;6.614;2023-04-25T12:50:51;4.13;;;1.03;;
52126;SDS011;38120;53.176;6.614;2023-04-25T12:53:17;11.73;;;1.17;;
52126;SDS011;38120;53.176;6.614;2023-04-25T12:55:44;5.22;;;1.20;;
52126;SDS011;38120;53.176;6.614;2023-04-25T12:58:13;4.03;;;1.00;;
52126;SDS011;38120;53.176;6.614;2023-04-25T13:00:43;6.47;;;1.95;;
52126;SDS011;38120;53.176;6.614;2023-04-25T13:03:09;5.82;;;0.75;;
52126;SDS011;38120;53.176;6.614;2023-04-25T13:05:36;7.30;;;1.15;;
52126;SDS011;38120;53.176;6.614;2023-04-25T13:08:02;4.40;;;1.35;;
52126;SDS011;38120;53.176;6.614;2023-04-25T13:10:29;4.38;;;1.42;;
52126;SDS011;38120;53.176;6.614;2023-04-25T13:12:54;6.17;;;1.50;;
52126;SDS011;38120;53.176;6.614;2023-04-25T13:15:20;7.20;;;1.40;;
52126;SDS011;38120;53.176;6.614;2023-04-25T13:17:47;5.82;;;1.80;;
52126;SDS011;38120;53.176;6.614;2023-04-25T13:20:12;7.32;;;2.05;;
52126;SDS011;38120;53.176;6.614;2023-04-25T13:22:40;8.00;;;1.52;;
52126;SDS011;38120;53.176;6.614;2023-04-25T13:25:07;5.75;;;1.60;;
52126;SDS011;38120;53.176;6.614;2023-04-25T13:27:33;8.60;;;1.67;;
52126;SDS011;38120;53.176;6.614;2023-04-25T13:30:01;11.70;;;1.63;;
52126;SDS011;38120;53.176;6.614;2023-04-25T13:32:36;6.30;;;1.50;;
52126;SDS011;38120;53.176;6.614;2023-04-25T13:35:06;5.93;;;1.33;;
52126;SDS011;38120;53.176;6.614;2023-04-25T13:37:43;8.40;;;1.90;;
52126;SDS011;38120;53.176;6.614;2023-04-25T13:40:09;4.73;;;1.30;;
52126;SDS011;38120;53.176;6.614;2023-04-25T13:42:38;8.27;;;2.35;;
52126;SDS011;38120;53.176;6.614;2023-04-25T13:47:31;3.95;;;1.65;;
52126;SDS011;38120;53.176;6.614;2023-04-25T13:49:57;6.40;;;1.70;;
52126;SDS011;38120;53.176;6.614;2023-04-25T13:52:23;8.60;;;1.70;;
52126;SDS011;38120;53.176;6.614;2023-04-25T13:54:52;6.32;;;1.48;;
52126;SDS011;38120;53.176;6.614;2023-04-25T13:57:21;6.22;;;1.42;;
52126;SDS011;38120;53.176;6.614;2023-04-25T13:59:47;2.97;;;1.00;;
52126;SDS011;38120;53.176;6.614;2023-04-25T14:02:12;5.53;;;1.00;;
52126;SDS011;38120;53.176;6.614;2023-04-25T14:04:38;3.00;;;0.67;;
52126;SDS011;38120;53.176;6.614;2023-04-25T14:07:04;6.15;;;1.27;;
52126;SDS011;38120;53.176;6.614;2023-04-25T14:09:30;8.93;;;1.27;;
52126;SDS011;38120;53.176;6.614;2023-04-25T14:11:56;6.07;;;1.45;;
52126;SDS011;38120;53.176;6.614;2023-04-25T14:14:22;9.00;;;1.33;;
52126;SDS011;38120;53.176;6.614;2023-04-25T14:16:49;3.97;;;1.00;;
52126;SDS011;38120;53.176;6.614;2023-04-25T14:19:19;10.30;;;1.90;;
52126;SDS011;38120;53.176;6.614;2023-04-25T14:21:52;8.90;;;1.92;;
52126;SDS011;38120;53.176;6.614;2023-04-25T14:24:17;9.20;;;2.00;;
52126;SDS011;38120;53.176;6.614;2023-04-25T14:26:43;3.80;;;1.27;;
52126;SDS011;38120;53.176;6.614;2023-04-25T14:29:09;9.02;;;2.28;;
52126;SDS011;38120;53.176;6.614;2023-04-25T14:31:37;6.57;;;1.75;;
52126;SDS011;38120;53.176;6.614;2023-04-25T14:34:04;6.28;;;1.65;;
52126;SDS011;38120;53.176;6.614;2023-04-25T14:36:30;3.45;;;0.95;;
52126;SDS011;38120;53.176;6.614;2023-04-25T14:41:23;5.53;;;1.00;;
52126;SDS011;38120;53.176;6.614;2023-04-25T14:43:49;4.75;;;1.17;;
52126;SDS011;38120;53.176;6.614;2023-04-25T14:46:15;6.40;;;1.58;;
52126;SDS011;38120;53.176;6.614;2023-04-25T14:48:41;7.20;;;1.35;;
52126;SDS011;38120;53.176;6.614;2023-04-25T14:51:07;8.45;;;1.40;;
52126;SDS011;38120;53.176;6.614;2023-04-25T14:53:33;7.27;;;1.20;;
52126;SDS011;38120;53.176;6.614;2023-04-25T14:55:59;8.43;;;1.83;;
52126;SDS011;38120;53.176;6.614;2023-04-25T14:58:24;7.53;;;1.70;;
52126;SDS011;38120;53.176;6.614;2023-04-25T15:00:50;5.00;;;1.13;;
52126;SDS011;38120;53.176;6.614;2023-04-25T15:03:16;11.55;;;2.33;;
52126;SDS011;38120;53.176;6.614;2023-04-25T15:05:42;8.52;;;1.75;;